sensor_id;sensor_type;location;lat;lon;timestamp;P1;durP1;ratioP1;P2;durP2;ratioP2
49730;SDS011;35622;52.008;5.426;2023-09-19T00:02:14;2.75;;;1.40;;
49730;SDS011;35622;52.008;5.426;2023-09-19T00:04:39;7.60;;;1.38;;
49730;SDS011;35622;52.008;5.426;2023-09-19T00:07:05;4.18;;;1.40;;
49730;SDS011;35622;52.008;5.426;2023-09-19T00:09:31;4.65;;;1.75;;
49730;SDS011;35622;52.008;5.426;2023-09-19T00:12:02;5.70;;;1.67;;
49730;SDS011;35622;52.008;5.426;2023-09-19T00:14:29;4.28;;;1.63;;
49730;SDS011;35622;52.008;5.426;2023-09-19T00:16:55;6.70;;;1.55;;
49730;SDS011;35622;52.008;5.426;2023-09-19T00:19:20;6.47;;;1.73;;
49730;SDS011;35622;52.008;5.426;2023-09-19T00:21:46;3.20;;;1.50;;
49730;SDS011;35622;52.008;5.426;2023-09-19T00:24:12;6.70;;;1.88;;
49730;SDS011;35622;52.008;5.426;2023-09-19T00:26:38;5.35;;;1.75;;
49730;SDS011;35622;52.008;5.426;2023-09-19T00:29:04;3.45;;;1.48;;
49730;SDS011;35622;52.008;5.426;2023-09-19T00:31:33;7.07;;;1.55;;
49730;SDS011;35622;52.008;5.426;2023-09-19T00:33:59;4.25;;;1.52;;
49730;SDS011;35622;52.008;5.426;2023-09-19T00:36:31;6.47;;;1.80;;
49730;SDS011;35622;52.008;5.426;2023-09-19T00:38:58;8.68;;;1.75;;
49730;SDS011;35622;52.008;5.426;2023-09-19T00:41:24;6.10;;;1.60;;
49730;SDS011;35622;52.008;5.426;2023-09-19T00:43:50;5.55;;;1.63;;
49730;SDS011;35622;52.008;5.426;2023-09-19T00:46:18;4.60;;;1.40;;
49730;SDS011;35622;52.008;5.426;2023-09-19T00:48:44;6.40;;;1.70;;
49730;SDS011;35622;52.008;5.426;2023-09-19T00:51:11;6.57;;;1.60;;
49730;SDS011;35622;52.008;5.426;2023-09-19T00:53:38;5.07;;;1.40;;
49730;SDS011;35622;52.008;5.426;2023-09-19T00:56:04;8.35;;;1.60;;
49730;SDS011;35622;52.008;5.426;2023-09-19T00:58:34;3.75;;;1.90;;
49730;SDS011;35622;52.008;5.426;2023-09-19T01:01:02;8.48;;;1.95;;
49730;SDS011;35622;52.008;5.426;2023-09-19T01:03:32;7.32;;;1.77;;
49730;SDS011;35622;52.008;5.426;2023-09-19T01:05:59;5.60;;;2.05;;
49730;SDS011;35622;52.008;5.426;2023-09-19T01:08:25;4.43;;;1.63;;
49730;SDS011;35622;52.008;5.426;2023-09-19T01:10:55;8.23;;;2.20;;
49730;SDS011;35622;52.008;5.426;2023-09-19T01:13:37;4.38;;;2.00;;
49730;SDS011;35622;52.008;5.426;2023-09-19T01:19:41;7.72;;;2.25;;
49730;SDS011;35622;52.008;5.426;2023-09-19T01:28:32;7.85;;;2.63;;
49730;SDS011;35622;52.008;5.426;2023-09-19T01:31:12;10.73;;;2.50;;
49730;SDS011;35622;52.008;5.426;2023-09-19T01:33:53;12.18;;;2.35;;
49730;SDS011;35622;52.008;5.426;2023-09-19T01:36:23;10.10;;;2.45;;
49730;SDS011;35622;52.008;5.426;2023-09-19T01:38:49;13.20;;;2.72;;
49730;SDS011;35622;52.008;5.426;2023-09-19T01:41:16;7.07;;;2.20;;
49730;SDS011;35622;52.008;5.426;2023-09-19T01:43:54;12.95;;;2.70;;
49730;SDS011;35622;52.008;5.426;2023-09-19T01:46:24;10.55;;;2.17;;
49730;SDS011;35622;52.008;5.426;2023-09-19T01:51:21;9.80;;;1.92;;
49730;SDS011;35622;52.008;5.426;2023-09-19T01:54:16;8.63;;;2.17;;
49730;SDS011;35622;52.008;5.426;2023-09-19T01:56:50;8.02;;;2.03;;
49730;SDS011;35622;52.008;5.426;2023-09-19T01:59:28;11.60;;;2.05;;
49730;SDS011;35622;52.008;5.426;2023-09-19T02:02:03;9.27;;;2.13;;
49730;SDS011;35622;52.008;5.426;2023-09-19T02:04:31;10.55;;;2.25;;
49730;SDS011;35622;52.008;5.426;2023-09-19T02:06:59;9.13;;;2.03;;
49730;SDS011;35622;52.008;5.426;2023-09-19T02:09:26;7.10;;;1.70;;
49730;SDS011;35622;52.008;5.426;2023-09-19T02:11:51;10.07;;;2.13;;
49730;SDS011;35622;52.008;5.426;2023-09-19T02:14:17;5.90;;;2.03;;
49730;SDS011;35622;52.008;5.426;2023-09-19T02:16:44;8.35;;;1.98;;
49730;SDS011;35622;52.008;5.426;2023-09-19T02:19:10;9.20;;;1.90;;
49730;SDS011;35622;52.008;5.426;2023-09-19T02:21:36;11.43;;;2.10;;
49730;SDS011;35622;52.008;5.426;2023-09-19T02:24:02;9.32;;;2.00;;
49730;SDS011;35622;52.008;5.426;2023-09-19T02:26:28;10.57;;;2.00;;
49730;SDS011;35622;52.008;5.426;2023-09-19T02:28:54;10.15;;;2.10;;
49730;SDS011;35622;52.008;5.426;2023-09-19T02:31:20;9.18;;;1.88;;
49730;SDS011;35622;52.008;5.426;2023-09-19T02:33:45;8.93;;;1.55;;
49730;SDS011;35622;52.008;5.426;2023-09-19T02:36:11;8.70;;;2.28;;
49730;SDS011;35622;52.008;5.426;2023-09-19T02:38:36;10.00;;;1.75;;
49730;SDS011;35622;52.008;5.426;2023-09-19T02:41:02;8.23;;;2.10;;
49730;SDS011;35622;52.008;5.426;2023-09-19T02:43:28;10.15;;;2.05;;
49730;SDS011;35622;52.008;5.426;2023-09-19T02:45:53;9.75;;;2.00;;
49730;SDS011;35622;52.008;5.426;2023-09-19T02:48:19;6.88;;;1.80;;
49730;SDS011;35622;52.008;5.426;2023-09-19T02:50:45;9.63;;;2.28;;
49730;SDS011;35622;52.008;5.426;2023-09-19T02:53:14;9.18;;;1.67;;
49730;SDS011;35622;52.008;5.426;2023-09-19T02:55:40;13.07;;;2.38;;
49730;SDS011;35622;52.008;5.426;2023-09-19T02:58:05;10.40;;;2.00;;
49730;SDS011;35622;52.008;5.426;2023-09-19T03:00:36;9.32;;;2.00;;
49730;SDS011;35622;52.008;5.426;2023-09-19T03:03:02;8.98;;;1.70;;
49730;SDS011;35622;52.008;5.426;2023-09-19T03:05:29;10.57;;;2.20;;
49730;SDS011;35622;52.008;5.426;2023-09-19T03:07:56;13.82;;;1.80;;
49730;SDS011;35622;52.008;5.426;2023-09-19T03:10:25;10.50;;;2.03;;
49730;SDS011;35622;52.008;5.426;2023-09-19T03:12:51;12.20;;;2.13;;
49730;SDS011;35622;52.008;5.426;2023-09-19T03:15:16;10.27;;;1.95;;
49730;SDS011;35622;52.008;5.426;2023-09-19T03:17:44;10.30;;;1.80;;
49730;SDS011;35622;52.008;5.426;2023-09-19T03:20:10;10.55;;;1.92;;
49730;SDS011;35622;52.008;5.426;2023-09-19T03:22:38;11.50;;;1.98;;
49730;SDS011;35622;52.008;5.426;2023-09-19T03:25:05;6.38;;;1.77;;
49730;SDS011;35622;52.008;5.426;2023-09-19T03:27:33;11.73;;;2.13;;
49730;SDS011;35622;52.008;5.426;2023-09-19T03:29:59;11.05;;;1.73;;
49730;SDS011;35622;52.008;5.426;2023-09-19T03:32:24;10.32;;;1.92;;
49730;SDS011;35622;52.008;5.426;2023-09-19T03:34:50;7.28;;;1.80;;
49730;SDS011;35622;52.008;5.426;2023-09-19T03:37:15;11.20;;;2.05;;
49730;SDS011;35622;52.008;5.426;2023-09-19T03:39:41;10.40;;;1.58;;
49730;SDS011;35622;52.008;5.426;2023-09-19T03:42:06;8.57;;;2.08;;
49730;SDS011;35622;52.008;5.426;2023-09-19T03:44:32;9.60;;;1.75;;
49730;SDS011;35622;52.008;5.426;2023-09-19T03:46:57;9.55;;;1.38;;
49730;SDS011;35622;52.008;5.426;2023-09-19T03:49:23;9.60;;;2.25;;
49730;SDS011;35622;52.008;5.426;2023-09-19T03:51:49;6.65;;;1.50;;
49730;SDS011;35622;52.008;5.426;2023-09-19T03:54:14;6.97;;;1.60;;
49730;SDS011;35622;52.008;5.426;2023-09-19T03:56:41;13.98;;;1.77;;
49730;SDS011;35622;52.008;5.426;2023-09-19T03:59:07;9.52;;;1.60;;
49730;SDS011;35622;52.008;5.426;2023-09-19T04:01:34;4.53;;;1.73;;
49730;SDS011;35622;52.008;5.426;2023-09-19T04:04:00;9.25;;;1.83;;
49730;SDS011;35622;52.008;5.426;2023-09-19T04:06:33;9.90;;;1.70;;
49730;SDS011;35622;52.008;5.426;2023-09-19T04:09:00;10.25;;;2.30;;
49730;SDS011;35622;52.008;5.426;2023-09-19T04:11:26;9.13;;;2.13;;
49730;SDS011;35622;52.008;5.426;2023-09-19T04:13:52;9.63;;;2.25;;
49730;SDS011;35622;52.008;5.426;2023-09-19T04:16:17;9.77;;;2.20;;
49730;SDS011;35622;52.008;5.426;2023-09-19T04:18:43;13.75;;;2.10;;
49730;SDS011;35622;52.008;5.426;2023-09-19T04:21:09;6.47;;;1.70;;
49730;SDS011;35622;52.008;5.426;2023-09-19T04:23:34;13.48;;;2.50;;
49730;SDS011;35622;52.008;5.426;2023-09-19T04:26:00;9.48;;;1.92;;
49730;SDS011;35622;52.008;5.426;2023-09-19T04:28:25;12.35;;;2.20;;
49730;SDS011;35622;52.008;5.426;2023-09-19T04:30:52;8.60;;;1.70;;
49730;SDS011;35622;52.008;5.426;2023-09-19T04:33:18;5.93;;;1.75;;
49730;SDS011;35622;52.008;5.426;2023-09-19T04:35:44;10.65;;;1.98;;
49730;SDS011;35622;52.008;5.426;2023-09-19T04:38:09;8.45;;;2.17;;
49730;SDS011;35622;52.008;5.426;2023-09-19T04:40:35;8.93;;;1.70;;
49730;SDS011;35622;52.008;5.426;2023-09-19T04:43:00;10.00;;;2.40;;
49730;SDS011;35622;52.008;5.426;2023-09-19T04:45:26;8.10;;;1.90;;
49730;SDS011;35622;52.008;5.426;2023-09-19T04:47:53;9.73;;;2.15;;
49730;SDS011;35622;52.008;5.426;2023-09-19T04:50:19;9.93;;;1.85;;
49730;SDS011;35622;52.008;5.426;2023-09-19T04:52:51;6.88;;;1.50;;
49730;SDS011;35622;52.008;5.426;2023-09-19T04:55:17;9.18;;;2.70;;
49730;SDS011;35622;52.008;5.426;2023-09-19T04:57:47;8.32;;;1.65;;
49730;SDS011;35622;52.008;5.426;2023-09-19T05:00:18;11.07;;;1.75;;
49730;SDS011;35622;52.008;5.426;2023-09-19T05:02:48;7.78;;;2.10;;
49730;SDS011;35622;52.008;5.426;2023-09-19T05:05:16;5.38;;;1.75;;
49730;SDS011;35622;52.008;5.426;2023-09-19T05:07:42;9.40;;;2.35;;
49730;SDS011;35622;52.008;5.426;2023-09-19T05:10:09;8.60;;;2.13;;
49730;SDS011;35622;52.008;5.426;2023-09-19T05:12:38;10.32;;;2.03;;
49730;SDS011;35622;52.008;5.426;2023-09-19T05:15:04;12.02;;;1.88;;
49730;SDS011;35622;52.008;5.426;2023-09-19T05:17:32;9.93;;;1.92;;
49730;SDS011;35622;52.008;5.426;2023-09-19T05:19:58;6.07;;;1.75;;
49730;SDS011;35622;52.008;5.426;2023-09-19T05:22:30;10.32;;;1.73;;
49730;SDS011;35622;52.008;5.426;2023-09-19T05:24:57;8.73;;;2.03;;
49730;SDS011;35622;52.008;5.426;2023-09-19T05:27:23;10.10;;;1.92;;
49730;SDS011;35622;52.008;5.426;2023-09-19T05:29:48;8.05;;;2.13;;
49730;SDS011;35622;52.008;5.426;2023-09-19T05:32:15;10.52;;;1.80;;
49730;SDS011;35622;52.008;5.426;2023-09-19T05:34:44;9.25;;;1.80;;
49730;SDS011;35622;52.008;5.426;2023-09-19T05:37:10;7.13;;;1.77;;
49730;SDS011;35622;52.008;5.426;2023-09-19T05:39:35;6.07;;;1.73;;
49730;SDS011;35622;52.008;5.426;2023-09-19T05:42:02;13.10;;;2.00;;
49730;SDS011;35622;52.008;5.426;2023-09-19T05:44:28;5.03;;;1.50;;
49730;SDS011;35622;52.008;5.426;2023-09-19T05:46:54;10.02;;;1.90;;
49730;SDS011;35622;52.008;5.426;2023-09-19T05:49:21;11.23;;;1.73;;
49730;SDS011;35622;52.008;5.426;2023-09-19T05:51:47;6.82;;;2.17;;
49730;SDS011;35622;52.008;5.426;2023-09-19T05:54:12;15.98;;;2.90;;
49730;SDS011;35622;52.008;5.426;2023-09-19T05:56:38;11.02;;;2.33;;
49730;SDS011;35622;52.008;5.426;2023-09-19T05:59:03;10.25;;;1.85;;
49730;SDS011;35622;52.008;5.426;2023-09-19T06:01:30;7.50;;;1.88;;
49730;SDS011;35622;52.008;5.426;2023-09-19T06:03:57;10.50;;;1.98;;
49730;SDS011;35622;52.008;5.426;2023-09-19T06:06:24;11.93;;;2.28;;
49730;SDS011;35622;52.008;5.426;2023-09-19T06:11:44;9.48;;;1.63;;
49730;SDS011;35622;52.008;5.426;2023-09-19T06:14:09;8.25;;;2.08;;
49730;SDS011;35622;52.008;5.426;2023-09-19T06:16:35;9.85;;;1.73;;
49730;SDS011;35622;52.008;5.426;2023-09-19T06:19:03;7.57;;;1.75;;
49730;SDS011;35622;52.008;5.426;2023-09-19T06:21:31;12.55;;;2.05;;
49730;SDS011;35622;52.008;5.426;2023-09-19T06:23:57;7.93;;;1.80;;
49730;SDS011;35622;52.008;5.426;2023-09-19T06:26:23;8.88;;;1.80;;
49730;SDS011;35622;52.008;5.426;2023-09-19T06:28:48;13.90;;;2.22;;
49730;SDS011;35622;52.008;5.426;2023-09-19T06:31:14;11.38;;;2.47;;
49730;SDS011;35622;52.008;5.426;2023-09-19T06:33:40;7.85;;;2.05;;
49730;SDS011;35622;52.008;5.426;2023-09-19T06:36:05;7.65;;;1.58;;
49730;SDS011;35622;52.008;5.426;2023-09-19T06:38:32;10.35;;;2.08;;
49730;SDS011;35622;52.008;5.426;2023-09-19T06:41:00;9.25;;;1.67;;
49730;SDS011;35622;52.008;5.426;2023-09-19T06:43:30;9.63;;;2.00;;
49730;SDS011;35622;52.008;5.426;2023-09-19T06:45:57;10.48;;;1.90;;
49730;SDS011;35622;52.008;5.426;2023-09-19T06:48:23;8.13;;;1.88;;
49730;SDS011;35622;52.008;5.426;2023-09-19T06:50:54;9.40;;;2.10;;
49730;SDS011;35622;52.008;5.426;2023-09-19T06:53:27;9.48;;;2.15;;
49730;SDS011;35622;52.008;5.426;2023-09-19T06:55:56;8.95;;;1.95;;
49730;SDS011;35622;52.008;5.426;2023-09-19T06:58:22;8.63;;;1.95;;
49730;SDS011;35622;52.008;5.426;2023-09-19T07:00:48;11.38;;;2.00;;
49730;SDS011;35622;52.008;5.426;2023-09-19T07:03:15;8.43;;;1.70;;
49730;SDS011;35622;52.008;5.426;2023-09-19T07:05:43;10.00;;;1.50;;
49730;SDS011;35622;52.008;5.426;2023-09-19T07:08:09;16.08;;;1.98;;
49730;SDS011;35622;52.008;5.426;2023-09-19T07:10:38;9.38;;;1.70;;
49730;SDS011;35622;52.008;5.426;2023-09-19T07:13:06;12.48;;;2.13;;
49730;SDS011;35622;52.008;5.426;2023-09-19T07:15:36;7.32;;;1.80;;
49730;SDS011;35622;52.008;5.426;2023-09-19T07:18:06;14.00;;;2.40;;
49730;SDS011;35622;52.008;5.426;2023-09-19T07:20:35;9.38;;;2.30;;
49730;SDS011;35622;52.008;5.426;2023-09-19T07:23:01;12.23;;;1.83;;
49730;SDS011;35622;52.008;5.426;2023-09-19T07:25:27;11.07;;;1.80;;
49730;SDS011;35622;52.008;5.426;2023-09-19T07:27:56;7.70;;;1.67;;
49730;SDS011;35622;52.008;5.426;2023-09-19T07:30:25;10.15;;;1.88;;
49730;SDS011;35622;52.008;5.426;2023-09-19T07:32:51;6.50;;;1.60;;
49730;SDS011;35622;52.008;5.426;2023-09-19T07:35:17;9.35;;;1.63;;
49730;SDS011;35622;52.008;5.426;2023-09-19T07:37:45;8.32;;;2.00;;
49730;SDS011;35622;52.008;5.426;2023-09-19T07:40:14;12.13;;;1.67;;
49730;SDS011;35622;52.008;5.426;2023-09-19T07:42:40;6.88;;;1.58;;
49730;SDS011;35622;52.008;5.426;2023-09-19T07:45:07;6.05;;;1.70;;
49730;SDS011;35622;52.008;5.426;2023-09-19T07:47:33;7.30;;;1.48;;
49730;SDS011;35622;52.008;5.426;2023-09-19T07:50:01;7.32;;;1.50;;
49730;SDS011;35622;52.008;5.426;2023-09-19T07:52:28;10.43;;;1.90;;
49730;SDS011;35622;52.008;5.426;2023-09-19T07:54:54;9.45;;;1.83;;
49730;SDS011;35622;52.008;5.426;2023-09-19T07:57:22;6.85;;;1.80;;
49730;SDS011;35622;52.008;5.426;2023-09-19T07:59:47;8.23;;;2.00;;
49730;SDS011;35622;52.008;5.426;2023-09-19T08:02:13;9.75;;;1.70;;
49730;SDS011;35622;52.008;5.426;2023-09-19T08:04:44;6.47;;;1.60;;
49730;SDS011;35622;52.008;5.426;2023-09-19T08:07:10;7.85;;;2.10;;
49730;SDS011;35622;52.008;5.426;2023-09-19T08:09:36;8.25;;;1.83;;
49730;SDS011;35622;52.008;5.426;2023-09-19T08:12:03;8.48;;;1.60;;
49730;SDS011;35622;52.008;5.426;2023-09-19T08:14:29;9.50;;;1.90;;
49730;SDS011;35622;52.008;5.426;2023-09-19T08:16:58;10.80;;;2.45;;
49730;SDS011;35622;52.008;5.426;2023-09-19T08:19:25;8.88;;;1.88;;
49730;SDS011;35622;52.008;5.426;2023-09-19T08:21:56;8.55;;;1.77;;
49730;SDS011;35622;52.008;5.426;2023-09-19T08:24:26;13.30;;;1.80;;
49730;SDS011;35622;52.008;5.426;2023-09-19T08:26:55;9.43;;;1.85;;
49730;SDS011;35622;52.008;5.426;2023-09-19T08:29:22;8.38;;;1.92;;
49730;SDS011;35622;52.008;5.426;2023-09-19T08:31:56;8.02;;;2.00;;
49730;SDS011;35622;52.008;5.426;2023-09-19T08:34:23;7.70;;;1.70;;
49730;SDS011;35622;52.008;5.426;2023-09-19T08:36:50;6.95;;;1.88;;
49730;SDS011;35622;52.008;5.426;2023-09-19T08:39:17;8.30;;;2.20;;
49730;SDS011;35622;52.008;5.426;2023-09-19T08:41:44;9.70;;;2.20;;
49730;SDS011;35622;52.008;5.426;2023-09-19T08:44:09;8.05;;;2.20;;
49730;SDS011;35622;52.008;5.426;2023-09-19T08:46:35;9.68;;;2.17;;
49730;SDS011;35622;52.008;5.426;2023-09-19T08:49:08;9.88;;;2.10;;
49730;SDS011;35622;52.008;5.426;2023-09-19T08:51:53;12.90;;;2.30;;
49730;SDS011;35622;52.008;5.426;2023-09-19T08:54:26;8.15;;;2.30;;
49730;SDS011;35622;52.008;5.426;2023-09-19T08:56:57;11.02;;;1.83;;
49730;SDS011;35622;52.008;5.426;2023-09-19T08:59:27;8.05;;;1.60;;
49730;SDS011;35622;52.008;5.426;2023-09-19T09:01:54;10.57;;;2.28;;
49730;SDS011;35622;52.008;5.426;2023-09-19T09:04:21;7.30;;;1.63;;
49730;SDS011;35622;52.008;5.426;2023-09-19T09:06:48;8.57;;;2.10;;
49730;SDS011;35622;52.008;5.426;2023-09-19T09:09:15;8.85;;;1.95;;
49730;SDS011;35622;52.008;5.426;2023-09-19T09:11:42;8.68;;;2.20;;
49730;SDS011;35622;52.008;5.426;2023-09-19T09:14:07;10.57;;;2.70;;
49730;SDS011;35622;52.008;5.426;2023-09-19T09:16:33;6.60;;;1.67;;
49730;SDS011;35622;52.008;5.426;2023-09-19T09:18:59;11.57;;;1.67;;
49730;SDS011;35622;52.008;5.426;2023-09-19T09:21:26;6.68;;;1.55;;
49730;SDS011;35622;52.008;5.426;2023-09-19T09:23:53;10.98;;;2.42;;
49730;SDS011;35622;52.008;5.426;2023-09-19T09:29:05;8.35;;;1.90;;
49730;SDS011;35622;52.008;5.426;2023-09-19T09:31:31;7.82;;;1.75;;
49730;SDS011;35622;52.008;5.426;2023-09-19T09:33:57;7.65;;;1.70;;
49730;SDS011;35622;52.008;5.426;2023-09-19T09:36:33;12.02;;;2.05;;
49730;SDS011;35622;52.008;5.426;2023-09-19T09:39:03;9.05;;;1.75;;
49730;SDS011;35622;52.008;5.426;2023-09-19T09:41:41;9.48;;;1.90;;
49730;SDS011;35622;52.008;5.426;2023-09-19T09:44:17;7.80;;;1.50;;
49730;SDS011;35622;52.008;5.426;2023-09-19T09:46:44;11.02;;;2.00;;
49730;SDS011;35622;52.008;5.426;2023-09-19T09:49:22;8.18;;;1.83;;
49730;SDS011;35622;52.008;5.426;2023-09-19T09:52:01;6.80;;;1.55;;
49730;SDS011;35622;52.008;5.426;2023-09-19T09:54:32;8.25;;;1.75;;
49730;SDS011;35622;52.008;5.426;2023-09-19T09:57:01;9.32;;;1.92;;
49730;SDS011;35622;52.008;5.426;2023-09-19T09:59:51;8.52;;;1.55;;
49730;SDS011;35622;52.008;5.426;2023-09-19T10:02:35;9.45;;;1.98;;
49730;SDS011;35622;52.008;5.426;2023-09-19T10:07:45;9.55;;;1.83;;
49730;SDS011;35622;52.008;5.426;2023-09-19T10:10:33;6.32;;;1.60;;
49730;SDS011;35622;52.008;5.426;2023-09-19T10:13:19;8.30;;;1.70;;
49730;SDS011;35622;52.008;5.426;2023-09-19T10:15:48;8.43;;;1.80;;
49730;SDS011;35622;52.008;5.426;2023-09-19T10:18:20;7.63;;;1.98;;
49730;SDS011;35622;52.008;5.426;2023-09-19T10:20:47;6.72;;;1.73;;
49730;SDS011;35622;52.008;5.426;2023-09-19T10:23:16;9.93;;;1.60;;
49730;SDS011;35622;52.008;5.426;2023-09-19T10:25:47;9.75;;;1.58;;
49730;SDS011;35622;52.008;5.426;2023-09-19T10:28:14;9.23;;;1.98;;
49730;SDS011;35622;52.008;5.426;2023-09-19T10:30:42;6.25;;;1.55;;
49730;SDS011;35622;52.008;5.426;2023-09-19T10:33:10;6.82;;;1.40;;
49730;SDS011;35622;52.008;5.426;2023-09-19T10:35:47;8.88;;;2.05;;
49730;SDS011;35622;52.008;5.426;2023-09-19T10:38:14;9.00;;;2.13;;
49730;SDS011;35622;52.008;5.426;2023-09-19T10:40:44;4.82;;;1.55;;
49730;SDS011;35622;52.008;5.426;2023-09-19T10:43:15;5.82;;;1.75;;
49730;SDS011;35622;52.008;5.426;2023-09-19T10:45:43;8.15;;;1.80;;
49730;SDS011;35622;52.008;5.426;2023-09-19T10:48:17;7.25;;;1.92;;
49730;SDS011;35622;52.008;5.426;2023-09-19T10:50:46;6.78;;;1.85;;
49730;SDS011;35622;52.008;5.426;2023-09-19T10:53:24;7.15;;;1.98;;
49730;SDS011;35622;52.008;5.426;2023-09-19T10:55:59;10.00;;;2.50;;
49730;SDS011;35622;52.008;5.426;2023-09-19T10:58:28;6.28;;;1.80;;
49730;SDS011;35622;52.008;5.426;2023-09-19T11:00:58;8.18;;;1.55;;
49730;SDS011;35622;52.008;5.426;2023-09-19T11:03:31;4.97;;;1.65;;
49730;SDS011;35622;52.008;5.426;2023-09-19T11:06:17;6.20;;;1.70;;
49730;SDS011;35622;52.008;5.426;2023-09-19T11:08:50;8.40;;;1.90;;
49730;SDS011;35622;52.008;5.426;2023-09-19T11:14:13;8.57;;;1.77;;
49730;SDS011;35622;52.008;5.426;2023-09-19T11:30:31;6.43;;;1.55;;
49730;SDS011;35622;52.008;5.426;2023-09-19T11:36:12;8.98;;;1.40;;
49730;SDS011;35622;52.008;5.426;2023-09-19T11:43:51;5.68;;;1.40;;
49730;SDS011;35622;52.008;5.426;2023-09-19T11:46:23;5.57;;;1.20;;
49730;SDS011;35622;52.008;5.426;2023-09-19T11:48:50;4.72;;;1.08;;
49730;SDS011;35622;52.008;5.426;2023-09-19T11:51:17;4.45;;;0.93;;
49730;SDS011;35622;52.008;5.426;2023-09-19T11:53:48;4.30;;;1.02;;
49730;SDS011;35622;52.008;5.426;2023-09-19T11:56:15;2.83;;;1.02;;
49730;SDS011;35622;52.008;5.426;2023-09-19T11:58:46;4.55;;;1.00;;
49730;SDS011;35622;52.008;5.426;2023-09-19T12:01:15;6.22;;;1.05;;
49730;SDS011;35622;52.008;5.426;2023-09-19T12:03:54;3.50;;;0.90;;
49730;SDS011;35622;52.008;5.426;2023-09-19T12:06:22;5.30;;;1.05;;
49730;SDS011;35622;52.008;5.426;2023-09-19T12:08:49;4.10;;;0.82;;
49730;SDS011;35622;52.008;5.426;2023-09-19T12:11:16;4.30;;;1.05;;
49730;SDS011;35622;52.008;5.426;2023-09-19T12:13:43;3.15;;;0.77;;
49730;SDS011;35622;52.008;5.426;2023-09-19T12:16:17;4.75;;;1.00;;
49730;SDS011;35622;52.008;5.426;2023-09-19T12:18:46;3.72;;;0.95;;
49730;SDS011;35622;52.008;5.426;2023-09-19T12:21:30;5.65;;;0.98;;
49730;SDS011;35622;52.008;5.426;2023-09-19T12:24:07;5.03;;;1.08;;
49730;SDS011;35622;52.008;5.426;2023-09-19T12:26:44;5.90;;;0.82;;
49730;SDS011;35622;52.008;5.426;2023-09-19T12:31:49;4.50;;;1.13;;
49730;SDS011;35622;52.008;5.426;2023-09-19T12:34:21;3.33;;;0.68;;
49730;SDS011;35622;52.008;5.426;2023-09-19T12:36:48;4.50;;;0.75;;
49730;SDS011;35622;52.008;5.426;2023-09-19T12:39:23;3.35;;;0.90;;
49730;SDS011;35622;52.008;5.426;2023-09-19T12:41:50;2.92;;;0.95;;
49730;SDS011;35622;52.008;5.426;2023-09-19T12:44:18;4.88;;;0.90;;
49730;SDS011;35622;52.008;5.426;2023-09-19T12:46:44;3.75;;;0.88;;
49730;SDS011;35622;52.008;5.426;2023-09-19T12:49:16;3.75;;;0.90;;
49730;SDS011;35622;52.008;5.426;2023-09-19T12:51:43;3.08;;;0.90;;
49730;SDS011;35622;52.008;5.426;2023-09-19T12:54:10;3.80;;;0.90;;
49730;SDS011;35622;52.008;5.426;2023-09-19T12:56:39;4.57;;;1.05;;
49730;SDS011;35622;52.008;5.426;2023-09-19T12:59:14;3.45;;;0.95;;
49730;SDS011;35622;52.008;5.426;2023-09-19T13:01:40;4.75;;;0.90;;
49730;SDS011;35622;52.008;5.426;2023-09-19T13:04:19;4.78;;;1.33;;
49730;SDS011;35622;52.008;5.426;2023-09-19T13:06:46;3.38;;;0.70;;
49730;SDS011;35622;52.008;5.426;2023-09-19T13:09:13;3.70;;;0.70;;
49730;SDS011;35622;52.008;5.426;2023-09-19T13:11:40;4.88;;;0.70;;
49730;SDS011;35622;52.008;5.426;2023-09-19T13:14:21;5.78;;;1.10;;
49730;SDS011;35622;52.008;5.426;2023-09-19T13:16:55;3.42;;;0.80;;
49730;SDS011;35622;52.008;5.426;2023-09-19T13:22:01;3.28;;;0.80;;
49730;SDS011;35622;52.008;5.426;2023-09-19T13:24:27;4.05;;;0.90;;
49730;SDS011;35622;52.008;5.426;2023-09-19T13:26:54;3.83;;;0.80;;
49730;SDS011;35622;52.008;5.426;2023-09-19T13:29:20;3.45;;;0.80;;
49730;SDS011;35622;52.008;5.426;2023-09-19T13:31:46;4.82;;;1.00;;
49730;SDS011;35622;52.008;5.426;2023-09-19T13:34:13;4.18;;;0.77;;
49730;SDS011;35622;52.008;5.426;2023-09-19T13:36:40;6.32;;;1.00;;
49730;SDS011;35622;52.008;5.426;2023-09-19T13:39:07;4.07;;;0.90;;
49730;SDS011;35622;52.008;5.426;2023-09-19T13:41:34;4.75;;;0.98;;
49730;SDS011;35622;52.008;5.426;2023-09-19T13:44:03;3.45;;;0.75;;
49730;SDS011;35622;52.008;5.426;2023-09-19T13:46:29;3.28;;;0.82;;
49730;SDS011;35622;52.008;5.426;2023-09-19T13:48:56;4.97;;;1.17;;
49730;SDS011;35622;52.008;5.426;2023-09-19T13:51:24;4.47;;;0.60;;
49730;SDS011;35622;52.008;5.426;2023-09-19T13:53:51;3.67;;;0.77;;
49730;SDS011;35622;52.008;5.426;2023-09-19T13:56:17;5.57;;;0.80;;
49730;SDS011;35622;52.008;5.426;2023-09-19T13:58:42;5.47;;;0.80;;
49730;SDS011;35622;52.008;5.426;2023-09-19T14:01:08;4.00;;;0.75;;
49730;SDS011;35622;52.008;5.426;2023-09-19T14:03:38;2.85;;;0.75;;
49730;SDS011;35622;52.008;5.426;2023-09-19T14:06:11;4.32;;;0.70;;
49730;SDS011;35622;52.008;5.426;2023-09-19T14:08:37;2.92;;;0.70;;
49730;SDS011;35622;52.008;5.426;2023-09-19T14:11:06;6.05;;;1.02;;
49730;SDS011;35622;52.008;5.426;2023-09-19T14:13:32;5.72;;;0.80;;
49730;SDS011;35622;52.008;5.426;2023-09-19T14:16:02;2.70;;;0.82;;
49730;SDS011;35622;52.008;5.426;2023-09-19T14:18:30;3.78;;;0.80;;
49730;SDS011;35622;52.008;5.426;2023-09-19T14:20:55;4.57;;;0.85;;
49730;SDS011;35622;52.008;5.426;2023-09-19T14:23:21;2.92;;;1.02;;
49730;SDS011;35622;52.008;5.426;2023-09-19T14:25:48;4.25;;;0.98;;
49730;SDS011;35622;52.008;5.426;2023-09-19T14:28:15;2.65;;;0.90;;
49730;SDS011;35622;52.008;5.426;2023-09-19T14:30:41;5.15;;;0.90;;
49730;SDS011;35622;52.008;5.426;2023-09-19T14:33:06;5.40;;;0.85;;
49730;SDS011;35622;52.008;5.426;2023-09-19T14:35:32;4.78;;;0.90;;
49730;SDS011;35622;52.008;5.426;2023-09-19T14:37:58;4.30;;;0.90;;
49730;SDS011;35622;52.008;5.426;2023-09-19T14:40:23;3.28;;;0.90;;
49730;SDS011;35622;52.008;5.426;2023-09-19T14:42:50;3.42;;;0.80;;
49730;SDS011;35622;52.008;5.426;2023-09-19T14:45:16;4.40;;;1.05;;
49730;SDS011;35622;52.008;5.426;2023-09-19T14:47:43;3.47;;;1.00;;
49730;SDS011;35622;52.008;5.426;2023-09-19T14:50:11;3.92;;;1.10;;
49730;SDS011;35622;52.008;5.426;2023-09-19T14:52:37;5.82;;;1.00;;
49730;SDS011;35622;52.008;5.426;2023-09-19T14:55:04;2.97;;;1.10;;
49730;SDS011;35622;52.008;5.426;2023-09-19T14:57:31;3.08;;;1.00;;
49730;SDS011;35622;52.008;5.426;2023-09-19T14:59:57;4.70;;;1.73;;
49730;SDS011;35622;52.008;5.426;2023-09-19T15:02:23;2.95;;;0.80;;
49730;SDS011;35622;52.008;5.426;2023-09-19T15:04:49;4.53;;;1.30;;
49730;SDS011;35622;52.008;5.426;2023-09-19T15:07:15;5.68;;;1.42;;
49730;SDS011;35622;52.008;5.426;2023-09-19T15:09:42;3.45;;;1.02;;
49730;SDS011;35622;52.008;5.426;2023-09-19T15:12:08;3.70;;;1.10;;
49730;SDS011;35622;52.008;5.426;2023-09-19T15:14:34;5.30;;;1.20;;
49730;SDS011;35622;52.008;5.426;2023-09-19T15:16:59;4.32;;;1.10;;
49730;SDS011;35622;52.008;5.426;2023-09-19T15:19:25;4.72;;;1.40;;
49730;SDS011;35622;52.008;5.426;2023-09-19T15:21:50;5.03;;;1.13;;
49730;SDS011;35622;52.008;5.426;2023-09-19T15:24:16;6.80;;;1.40;;
49730;SDS011;35622;52.008;5.426;2023-09-19T15:26:43;4.50;;;1.40;;
49730;SDS011;35622;52.008;5.426;2023-09-19T15:29:09;3.63;;;1.30;;
49730;SDS011;35622;52.008;5.426;2023-09-19T15:31:36;4.10;;;1.35;;
49730;SDS011;35622;52.008;5.426;2023-09-19T15:34:02;4.43;;;1.38;;
49730;SDS011;35622;52.008;5.426;2023-09-19T15:36:28;5.05;;;1.58;;
49730;SDS011;35622;52.008;5.426;2023-09-19T15:41:31;6.32;;;1.42;;
49730;SDS011;35622;52.008;5.426;2023-09-19T15:43:59;3.80;;;1.05;;
49730;SDS011;35622;52.008;5.426;2023-09-19T15:46:26;5.75;;;1.25;;